createdAt,value
2022-12-25T00:03:53.369Z,98.03
2022-12-25T00:08:53.130Z,97.80
2022-12-25T00:13:53.153Z,97.86
2022-12-25T00:18:53.179Z,98.01
2022-12-25T00:23:53.160Z,98.56
2022-12-25T00:28:53.201Z,99.61
2022-12-25T00:33:53.137Z,98.92
2022-12-25T00:38:53.149Z,100.00
2022-12-25T00:43:53.290Z,100.00
2022-12-25T00:48:53.138Z,100.00
2022-12-25T00:53:53.172Z,100.00
2022-12-25T00:58:53.128Z,100.00
2022-12-25T01:03:53.160Z,99.96
2022-12-25T01:08:53.181Z,100.00
2022-12-25T01:13:53.174Z,100.00
2022-12-25T01:18:53.187Z,100.00
2022-12-25T01:23:53.193Z,99.80
2022-12-25T01:28:53.202Z,100.00
2022-12-25T01:33:53.201Z,100.00
2022-12-25T01:43:53.173Z,100.00
2022-12-25T01:48:53.277Z,100.00
2022-12-25T01:53:53.319Z,100.00
2022-12-25T01:58:53.167Z,100.00
2022-12-25T02:03:53.232Z,100.00
2022-12-25T02:08:53.181Z,100.00
2022-12-25T02:13:53.238Z,100.00
2022-12-25T02:18:53.215Z,100.00
2022-12-25T02:23:53.217Z,100.00
2022-12-25T02:28:53.175Z,99.71
2022-12-25T02:33:53.194Z,99.71
2022-12-25T02:38:53.257Z,100.00
2022-12-25T02:43:53.252Z,100.00
2022-12-25T02:48:53.238Z,100.00
2022-12-25T02:53:53.226Z,98.04
2022-12-25T02:58:53.194Z,100.00
2022-12-25T03:03:53.290Z,100.00
2022-12-25T03:08:53.205Z,100.00
2022-12-25T03:13:53.243Z,99.83
2022-12-25T03:18:53.244Z,98.89
2022-12-25T03:23:53.227Z,100.00
2022-12-25T03:28:53.240Z,99.84
2022-12-25T03:33:53.266Z,99.68
2022-12-25T03:38:53.222Z,100.00
2022-12-25T03:43:53.312Z,100.00
2022-12-25T03:48:53.276Z,100.00
2022-12-25T03:53:53.210Z,100.00
2022-12-25T03:58:53.292Z,100.00
2022-12-25T04:03:53.254Z,100.00
2022-12-25T04:08:53.242Z,100.00
2022-12-25T04:13:53.279Z,100.00
2022-12-25T04:18:53.227Z,100.00
2022-12-25T04:23:53.325Z,100.00
2022-12-25T04:28:53.237Z,100.00
2022-12-25T04:33:53.287Z,100.00
2022-12-25T04:38:53.257Z,100.00
2022-12-25T04:43:53.327Z,100.00
2022-12-25T04:48:53.299Z,100.00
2022-12-25T04:53:53.279Z,100.00
2022-12-25T04:58:53.260Z,100.00
2022-12-25T05:03:53.376Z,100.00
2022-12-25T05:08:53.293Z,100.00
2022-12-25T05:18:53.271Z,100.00
2022-12-25T05:23:53.278Z,100.00
2022-12-25T05:28:53.297Z,100.00
2022-12-25T05:33:53.316Z,100.00
2022-12-25T05:38:53.267Z,100.00
2022-12-25T05:43:53.262Z,100.00
2022-12-25T05:48:53.265Z,100.00
2022-12-25T05:53:53.287Z,100.00
2022-12-25T05:58:53.247Z,100.00
2022-12-25T06:03:53.362Z,100.00
2022-12-25T06:08:53.280Z,100.00
2022-12-25T06:18:53.292Z,100.00
2022-12-25T06:23:53.350Z,100.00
2022-12-25T06:28:53.321Z,100.00
2022-12-25T06:33:53.284Z,100.00
2022-12-25T06:38:53.279Z,100.00
2022-12-25T06:43:53.308Z,100.00
2022-12-25T06:48:53.506Z,100.00
2022-12-25T06:53:53.286Z,100.00
2022-12-25T06:58:53.398Z,100.00
2022-12-25T07:03:53.314Z,100.00
2022-12-25T07:08:53.348Z,100.00
2022-12-25T07:13:53.293Z,100.00
2022-12-25T07:18:53.299Z,100.00
2022-12-25T07:23:53.300Z,100.00
2022-12-25T07:28:53.319Z,100.00
2022-12-25T07:33:53.397Z,98.87
2022-12-25T07:38:53.297Z,99.02
2022-12-25T07:43:53.331Z,99.54
2022-12-25T07:48:53.338Z,98.27
2022-12-25T07:53:53.339Z,98.67
2022-12-25T07:58:53.299Z,97.48
2022-12-25T08:03:53.521Z,96.43
2022-12-25T08:08:53.342Z,93.89
2022-12-25T08:13:53.347Z,93.89
2022-12-25T08:18:53.363Z,96.40
2022-12-25T08:23:53.361Z,96.40
2022-12-25T08:28:53.306Z,96.46
2022-12-25T08:33:53.321Z,93.35
2022-12-25T08:38:56.964Z,93.35
2022-12-25T08:43:53.342Z,95.16
2022-12-25T08:48:53.373Z,94.78
2022-12-25T08:53:53.355Z,89.37
2022-12-25T08:58:53.350Z,86.98
2022-12-25T09:03:53.389Z,85.83
2022-12-25T09:08:53.362Z,85.08
2022-12-25T09:13:53.350Z,84.77
2022-12-25T09:18:53.421Z,84.77
2022-12-25T09:23:53.341Z,83.14
2022-12-25T09:28:53.397Z,84.87
2022-12-25T09:33:53.404Z,84.87
2022-12-25T09:38:53.330Z,86.39
2022-12-25T09:43:53.375Z,86.39
2022-12-25T09:48:55.363Z,87.06
2022-12-25T09:53:53.373Z,88.78
2022-12-25T09:58:53.371Z,88.92
2022-12-25T10:08:53.609Z,89.39
2022-12-25T10:13:53.386Z,89.23
2022-12-25T10:18:53.479Z,89.23
2022-12-25T10:23:53.560Z,87.27
2022-12-25T10:28:53.366Z,85.02
2022-12-25T10:33:53.617Z,85.02
2022-12-25T10:38:53.384Z,83.31
2022-12-25T10:43:53.407Z,83.41
2022-12-25T10:48:53.402Z,84.10
2022-12-25T10:53:53.377Z,83.88
2022-12-25T10:58:53.458Z,83.88
2022-12-25T11:03:53.440Z,83.92
2022-12-25T11:08:53.422Z,83.66
2022-12-25T11:13:53.483Z,84.21
2022-12-25T11:18:53.408Z,83.45
2022-12-25T11:23:53.397Z,83.45
2022-12-25T11:28:53.502Z,83.01
2022-12-25T11:33:53.417Z,82.89
2022-12-25T11:38:53.443Z,82.54
2022-12-25T11:43:53.436Z,82.43
2022-12-25T11:48:53.415Z,82.32
2022-12-25T11:53:53.456Z,81.57
2022-12-25T11:58:53.490Z,81.57
2022-12-25T12:03:53.456Z,81.11
2022-12-25T12:08:53.405Z,80.64
2022-12-25T12:13:53.674Z,80.64
2022-12-25T12:18:53.584Z,79.89
2022-12-25T12:23:53.458Z,79.12
2022-12-25T12:28:53.407Z,79.12
2022-12-25T12:33:53.443Z,77.62
2022-12-25T12:38:53.454Z,77.62
2022-12-25T12:43:53.665Z,77.09
2022-12-25T12:48:53.702Z,75.25
2022-12-25T12:53:53.487Z,75.12
2022-12-25T12:58:53.458Z,74.58
2022-12-25T13:03:53.466Z,74.58
2022-12-25T13:08:53.752Z,74.61
2022-12-25T13:13:53.793Z,74.17
2022-12-25T13:18:53.725Z,74.17
2022-12-25T13:28:53.644Z,73.97
2022-12-25T13:33:53.516Z,73.97
2022-12-25T13:38:53.456Z,74.16
2022-12-25T13:43:53.486Z,74.45
2022-12-25T13:48:53.473Z,74.64
2022-12-25T13:53:53.493Z,75.16
2022-12-25T13:58:53.712Z,75.16
2022-12-25T14:03:53.495Z,75.95
2022-12-25T14:08:53.552Z,76.68
2022-12-25T14:13:53.559Z,76.68
2022-12-25T14:18:53.504Z,79.40
2022-12-25T14:23:53.906Z,80.40
2022-12-25T14:28:54.040Z,80.96
2022-12-25T14:33:53.517Z,81.44
2022-12-25T14:38:53.521Z,81.80
2022-12-25T14:43:53.502Z,81.80
2022-12-25T14:48:53.502Z,83.21
2022-12-25T14:53:53.575Z,83.21
2022-12-25T14:58:53.508Z,84.12
2022-12-25T15:08:53.520Z,84.45
2022-12-25T15:13:53.704Z,85.14
2022-12-25T15:18:53.483Z,85.88
2022-12-25T15:23:53.970Z,85.92
2022-12-25T15:28:53.480Z,86.39
2022-12-25T15:33:53.586Z,86.38
2022-12-25T15:38:53.561Z,86.38
2022-12-25T15:43:53.745Z,87.00
2022-12-25T15:48:53.602Z,87.77
2022-12-25T15:53:53.582Z,89.46
2022-12-25T15:58:53.574Z,89.93
2022-12-25T16:03:53.655Z,90.13
2022-12-25T16:08:53.569Z,90.13
2022-12-25T16:13:53.558Z,90.04
2022-12-25T16:23:53.557Z,90.47
2022-12-25T16:28:53.574Z,90.33
2022-12-25T16:33:54.252Z,90.33
2022-12-25T16:38:53.568Z,90.52
2022-12-25T16:43:54.024Z,90.52
2022-12-25T16:48:53.865Z,90.67
2022-12-25T16:53:53.706Z,90.24
2022-12-25T16:58:53.605Z,90.24
2022-12-25T17:03:55.441Z,88.98
2022-12-25T17:08:53.733Z,88.98
2022-12-25T17:13:54.034Z,88.46
2022-12-25T17:18:53.611Z,88.23
2022-12-25T17:23:59.646Z,87.86
2022-12-25T17:28:53.648Z,87.59
2022-12-25T17:33:53.563Z,87.69
2022-12-25T17:38:53.727Z,87.69
2022-12-25T17:43:54.395Z,87.88
2022-12-25T17:48:53.797Z,87.83
2022-12-25T17:53:53.697Z,87.96
2022-12-25T17:58:53.585Z,88.38
2022-12-25T18:03:53.616Z,88.01
2022-12-25T18:08:53.608Z,87.87
2022-12-25T18:13:53.637Z,87.87
2022-12-25T18:18:53.646Z,88.09
2022-12-25T18:23:53.693Z,88.30
2022-12-25T18:28:53.770Z,88.30
2022-12-25T18:33:53.643Z,88.55
2022-12-25T18:38:53.822Z,88.37
2022-12-25T18:43:55.841Z,88.71
2022-12-25T18:48:55.930Z,88.71
2022-12-25T18:53:53.681Z,88.97
2022-12-25T18:58:53.639Z,88.64
2022-12-25T19:04:00.093Z,88.50
2022-12-25T19:08:53.572Z,88.09
2022-12-25T19:13:53.658Z,88.23
2022-12-25T19:18:53.850Z,88.23
2022-12-25T19:23:53.821Z,88.50
2022-12-25T19:28:53.635Z,88.77
2022-12-25T19:38:53.818Z,88.85
2022-12-25T19:43:53.721Z,88.38
2022-12-25T19:48:53.676Z,88.78
2022-12-25T19:53:53.677Z,88.78
2022-12-25T19:58:53.746Z,89.59
2022-12-25T20:03:53.703Z,89.65
2022-12-25T20:08:53.626Z,90.02
2022-12-25T20:13:53.702Z,89.93
2022-12-25T20:18:53.636Z,90.34
2022-12-25T20:23:53.662Z,90.34
2022-12-25T20:28:54.103Z,90.53
2022-12-25T20:33:53.693Z,90.41
2022-12-25T20:38:53.665Z,91.53
2022-12-25T20:43:53.673Z,90.10
2022-12-25T20:48:53.700Z,89.28
2022-12-25T20:53:53.714Z,88.69
2022-12-25T21:03:53.894Z,88.62
2022-12-25T21:08:53.687Z,88.25
2022-12-25T21:13:53.727Z,88.25
2022-12-25T21:18:53.767Z,87.95
2022-12-25T21:23:53.705Z,88.14
2022-12-25T21:28:53.707Z,88.14
2022-12-25T21:33:53.824Z,87.84
2022-12-25T21:38:53.729Z,87.72
2022-12-25T21:43:55.911Z,87.72
2022-12-25T21:53:53.728Z,86.96
2022-12-25T21:58:53.678Z,86.96
2022-12-25T22:03:53.703Z,87.08
2022-12-25T22:08:53.937Z,87.08
2022-12-25T22:13:53.772Z,88.01
2022-12-25T22:18:53.682Z,88.13
2022-12-25T22:23:53.717Z,88.19
2022-12-25T22:28:53.698Z,87.70
2022-12-25T22:33:53.686Z,87.28
2022-12-25T22:38:53.667Z,87.60
2022-12-25T22:44:16.680Z,87.11
2022-12-25T22:48:53.736Z,87.04
2022-12-25T22:53:57.404Z,87.47
2022-12-25T22:58:53.714Z,88.07
2022-12-25T23:03:53.839Z,88.07
2022-12-25T23:08:53.744Z,90.25
2022-12-25T23:13:53.732Z,90.57
2022-12-25T23:18:53.700Z,90.92
2022-12-25T23:28:53.989Z,90.86
2022-12-25T23:33:53.765Z,90.11
2022-12-25T23:38:53.757Z,90.28
2022-12-25T23:43:53.729Z,90.60
2022-12-25T23:48:53.735Z,90.41
2022-12-25T23:53:53.728Z,90.15
2022-12-25T23:58:53.770Z,90.69
